createdAt,value
2023-03-17T00:04:07.008Z,7.00
2023-03-17T00:09:14.592Z,11.00
2023-03-17T00:14:17.719Z,8.75
2023-03-17T00:19:29.667Z,8.50
2023-03-17T00:24:33.533Z,8.00
2023-03-17T00:29:36.273Z,9.00
2023-03-17T00:34:40.589Z,11.00
2023-03-17T00:39:44.879Z,10.25
2023-03-17T00:44:47.634Z,7.75
2023-03-17T00:49:52.060Z,9.00
2023-03-17T00:54:54.853Z,8.50
2023-03-17T00:59:57.703Z,9.50
2023-03-17T01:05:06.677Z,7.25
2023-03-17T01:10:16.427Z,9.50
2023-03-17T01:15:21.585Z,8.25
2023-03-17T01:20:28.726Z,7.50
2023-03-17T01:25:32.605Z,8.00
2023-03-17T01:30:37.468Z,6.25
2023-03-17T01:35:43.627Z,8.00
2023-03-17T01:40:49.440Z,6.75
2023-03-17T01:46:27.490Z,6.50
2023-03-17T01:51:35.828Z,8.00
2023-03-17T01:56:41.990Z,9.25
2023-03-17T02:01:48.588Z,7.00
2023-03-17T02:06:58.465Z,5.00
2023-03-17T02:12:03.858Z,5.25
2023-03-17T02:17:07.313Z,5.50
2023-03-17T02:22:12.362Z,6.00
2023-03-17T02:27:19.105Z,5.25
2023-03-17T02:32:22.173Z,11.75
2023-03-17T02:37:26.441Z,6.25
2023-03-17T02:42:29.812Z,8.75
2023-03-17T02:47:34.699Z,9.25
2023-03-17T02:52:38.801Z,5.00
2023-03-17T02:57:41.876Z,5.00
2023-03-17T03:02:44.720Z,6.25
2023-03-17T03:07:48.832Z,5.75
2023-03-17T03:12:51.967Z,7.00
2023-03-17T03:17:54.789Z,5.00
2023-03-17T03:22:58.906Z,6.00
2023-03-17T03:28:01.685Z,5.00
2023-03-17T03:33:05.036Z,5.25
2023-03-17T03:38:09.903Z,4.50
2023-03-17T03:43:22.884Z,5.75
2023-03-17T03:48:25.994Z,5.50
2023-03-17T03:53:30.282Z,5.00
2023-03-17T03:58:33.023Z,4.75
2023-03-17T04:03:36.206Z,6.50
2023-03-17T04:08:40.290Z,6.00
2023-03-17T04:13:43.171Z,3.75
2023-03-17T04:18:45.913Z,5.50
2023-03-17T04:23:50.050Z,6.00
2023-03-17T04:28:52.788Z,4.00
2023-03-17T04:33:55.717Z,5.75
2023-03-17T04:38:59.933Z,5.25
2023-03-17T04:44:03.199Z,5.50
2023-03-17T04:49:06.675Z,4.75
2023-03-17T04:54:11.241Z,5.25
2023-03-17T04:59:14.169Z,6.25
2023-03-17T05:04:30.832Z,6.75
2023-03-17T05:09:36.077Z,5.50
2023-03-17T05:14:39.047Z,5.50
2023-03-17T05:19:42.451Z,4.00
2023-03-17T05:24:47.535Z,4.00
2023-03-17T05:29:50.544Z,3.75
2023-03-17T05:34:53.325Z,4.00
2023-03-17T05:39:57.669Z,4.00
2023-03-17T05:45:00.687Z,4.00
2023-03-17T05:50:04.771Z,4.75
2023-03-17T05:55:10.147Z,5.00
2023-03-17T06:00:16.117Z,4.75
2023-03-17T06:05:19.136Z,3.25
2023-03-17T06:10:23.629Z,6.00
2023-03-17T06:15:26.925Z,4.25
2023-03-17T06:20:29.702Z,5.00
2023-03-17T06:25:34.536Z,2.25
2023-03-17T06:30:40.531Z,4.00
2023-03-17T06:35:43.598Z,3.50
2023-03-17T06:40:47.956Z,3.75
2023-03-17T06:45:51.570Z,5.25
2023-03-17T06:50:54.430Z,3.75
2023-03-17T06:55:58.688Z,2.25
2023-03-17T07:01:01.430Z,3.00
2023-03-17T07:06:04.368Z,4.00
2023-03-17T07:11:09.368Z,3.00
2023-03-17T07:16:15.147Z,3.00
2023-03-17T07:21:17.960Z,4.25
2023-03-17T07:26:22.386Z,3.00
2023-03-17T07:31:25.437Z,4.00
2023-03-17T07:36:28.332Z,1.75
2023-03-17T07:41:32.564Z,2.00
2023-03-17T07:46:35.660Z,2.25
2023-03-17T07:51:38.735Z,2.25
2023-03-17T07:56:43.995Z,4.75
2023-03-17T08:01:46.879Z,4.25
2023-03-17T08:06:49.688Z,3.00
2023-03-17T08:11:54.207Z,6.25
2023-03-17T08:16:57.272Z,4.50
2023-03-17T08:22:00.315Z,4.25
2023-03-17T08:27:05.041Z,3.25
2023-03-17T08:32:08.734Z,6.00
2023-03-17T08:37:12.186Z,5.50
2023-03-17T08:42:17.069Z,6.50
2023-03-17T08:47:19.953Z,2.00
2023-03-17T08:52:23.126Z,4.00
2023-03-17T08:57:27.618Z,4.25
2023-03-17T09:02:30.665Z,2.50
2023-03-17T09:07:33.682Z,3.50
2023-03-17T09:12:38.537Z,3.00
2023-03-17T09:17:43.693Z,2.75
2023-03-17T09:22:47.692Z,2.75
2023-03-17T09:27:52.070Z,6.50
2023-03-17T09:32:54.930Z,72.60
2023-03-17T09:37:57.911Z,81.00
2023-03-17T09:43:13.896Z,153.00
2023-03-17T09:48:29.615Z,201.00
2023-03-17T09:53:36.490Z,246.75
2023-03-17T09:58:45.377Z,279.00
2023-03-17T10:03:50.394Z,321.67
2023-03-17T10:08:59.770Z,360.50
2023-03-17T10:14:09.402Z,370.25
2023-03-17T10:19:25.765Z,357.00
2023-03-17T10:24:32.546Z,338.67
2023-03-17T10:29:37.028Z,319.33
2023-03-17T10:34:41.552Z,314.67
2023-03-17T10:39:49.426Z,299.67
2023-03-17T10:44:56.087Z,281.33
2023-03-17T10:50:02.521Z,264.33
2023-03-17T10:55:07.319Z,260.67
2023-03-17T11:00:20.021Z,255.50
2023-03-17T11:05:25.395Z,232.00
2023-03-17T11:10:30.219Z,74.60
2023-03-17T11:15:36.564Z,140.00
2023-03-17T11:20:54.769Z,134.20
2023-03-17T11:26:10.293Z,137.40
2023-03-17T11:31:24.598Z,141.00
2023-03-17T11:36:43.359Z,142.20
2023-03-17T11:41:55.734Z,128.20
2023-03-17T11:47:06.696Z,91.60
2023-03-17T11:52:22.187Z,100.20
2023-03-17T11:57:32.178Z,90.80
2023-03-17T12:02:44.058Z,69.60
2023-03-17T12:07:51.290Z,69.40
2023-03-17T12:12:59.116Z,53.40
2023-03-17T12:18:10.900Z,38.40
2023-03-17T12:23:18.836Z,35.40
2023-03-17T12:28:27.136Z,36.40
2023-03-17T12:33:36.056Z,22.00
2023-03-17T12:38:44.643Z,14.25
2023-03-17T12:44:02.452Z,6.25
2023-03-17T12:49:32.612Z,10.50
2023-03-17T12:54:38.245Z,6.25
2023-03-17T12:59:44.177Z,10.75
2023-03-17T13:04:58.055Z,11.00
2023-03-17T13:10:34.716Z,9.50
2023-03-17T13:15:58.172Z,13.00
2023-03-17T13:21:16.157Z,12.00
2023-03-17T13:26:22.057Z,10.25
2023-03-17T13:31:36.728Z,9.75
2023-03-17T13:36:48.854Z,9.00
2023-03-17T13:42:15.699Z,10.25
2023-03-17T13:47:34.668Z,9.00
2023-03-17T13:52:46.778Z,9.75
2023-03-17T13:57:57.226Z,5.75
2023-03-17T14:03:05.540Z,273.00
2023-03-17T14:08:18.334Z,291.25
2023-03-17T14:13:26.285Z,315.33
2023-03-17T14:18:33.335Z,341.50
2023-03-17T14:23:37.555Z,407.75
2023-03-17T14:28:41.328Z,484.00
2023-03-17T14:33:44.138Z,174.40
2023-03-17T14:38:50.879Z,158.80
2023-03-17T14:43:58.369Z,155.40
2023-03-17T14:49:05.078Z,124.80
2023-03-17T14:54:15.539Z,114.80
2023-03-17T14:59:21.161Z,129.20
2023-03-17T15:04:26.702Z,97.60
2023-03-17T15:09:36.272Z,99.40
2023-03-17T15:14:41.752Z,97.00
2023-03-17T15:19:47.631Z,99.80
2023-03-17T15:25:00.979Z,100.00
2023-03-17T15:30:04.329Z,95.80
2023-03-17T15:35:12.131Z,74.40
2023-03-17T15:40:16.708Z,61.40
2023-03-17T15:45:19.577Z,71.80
2023-03-17T15:50:28.430Z,66.00
2023-03-17T15:55:33.542Z,68.80
2023-03-17T16:00:37.073Z,66.00
2023-03-17T16:05:40.409Z,62.20
2023-03-17T16:10:46.283Z,61.60
2023-03-17T16:15:54.653Z,61.20
2023-03-17T16:20:58.249Z,63.00
2023-03-17T16:26:14.200Z,62.00
2023-03-17T16:31:22.564Z,56.80
2023-03-17T16:36:26.563Z,56.40
2023-03-17T16:41:36.498Z,55.80
2023-03-17T16:46:39.926Z,53.80
2023-03-17T16:51:42.711Z,54.80
2023-03-17T16:56:47.106Z,53.00
2023-03-17T17:01:50.043Z,53.20
2023-03-17T17:06:53.057Z,55.80
2023-03-17T17:11:58.563Z,53.40
2023-03-17T17:17:01.489Z,48.20
2023-03-17T17:22:04.439Z,50.20
2023-03-17T17:27:08.859Z,47.80
2023-03-17T17:32:12.576Z,47.20
2023-03-17T17:37:16.011Z,46.60
2023-03-17T17:42:20.942Z,46.20
2023-03-17T17:47:24.320Z,43.80
2023-03-17T17:52:27.592Z,44.20
2023-03-17T17:57:31.861Z,46.80
2023-03-17T18:02:34.679Z,44.00
2023-03-17T18:07:37.745Z,42.00
2023-03-17T18:12:41.973Z,41.00
2023-03-17T18:17:45.117Z,37.60
2023-03-17T18:22:47.955Z,41.20
2023-03-17T18:27:52.292Z,40.60
2023-03-17T18:32:59.193Z,36.00
2023-03-17T18:38:02.827Z,39.60
2023-03-17T18:43:07.045Z,40.60
2023-03-17T18:48:10.111Z,39.40
2023-03-17T18:53:13.415Z,35.60
2023-03-17T18:58:17.973Z,41.60
2023-03-17T19:03:20.694Z,37.60
2023-03-17T19:08:24.025Z,33.20
2023-03-17T19:13:28.237Z,35.00
2023-03-17T19:18:31.869Z,40.80
2023-03-17T19:23:35.776Z,33.60
2023-03-17T19:28:39.912Z,40.00
2023-03-17T19:33:42.770Z,32.40
2023-03-17T19:38:45.754Z,30.60
2023-03-17T19:43:49.894Z,35.40
2023-03-17T19:48:53.717Z,31.40
2023-03-17T19:53:57.522Z,36.00
2023-03-17T19:59:02.204Z,29.20
2023-03-17T20:04:06.910Z,30.00
2023-03-17T20:09:10.281Z,27.40
2023-03-17T20:14:14.675Z,36.00
2023-03-17T20:19:17.883Z,30.80
2023-03-17T20:24:20.681Z,33.40
2023-03-17T20:29:25.727Z,31.60
2023-03-17T20:34:28.647Z,28.60
2023-03-17T20:39:32.435Z,30.20
2023-03-17T20:44:36.737Z,27.40
2023-03-17T20:49:39.481Z,27.00
2023-03-17T20:54:42.526Z,29.75
2023-03-17T20:59:46.942Z,26.00
2023-03-17T21:04:49.732Z,25.25
2023-03-17T21:09:56.322Z,26.80
2023-03-17T21:15:00.665Z,28.80
2023-03-17T21:20:03.921Z,23.00
2023-03-17T21:25:07.930Z,22.50
2023-03-17T21:30:14.404Z,20.40
2023-03-17T21:35:18.094Z,22.00
2023-03-17T21:40:22.411Z,19.25
2023-03-17T21:45:26.642Z,23.25
2023-03-17T21:50:30.680Z,23.00
2023-03-17T21:55:33.539Z,20.25
2023-03-17T22:00:45.198Z,20.40
2023-03-17T22:05:50.701Z,23.25
2023-03-17T22:10:53.795Z,22.50
2023-03-17T22:16:00.616Z,20.75
2023-03-17T22:21:03.755Z,23.25
2023-03-17T22:26:06.621Z,23.25
2023-03-17T22:31:16.308Z,25.00
2023-03-17T22:36:19.655Z,16.50
2023-03-17T22:41:24.173Z,19.50
2023-03-17T22:46:28.365Z,19.75
2023-03-17T22:51:31.270Z,21.25
2023-03-17T22:56:33.990Z,19.25
2023-03-17T23:01:38.131Z,19.25
2023-03-17T23:06:41.786Z,23.25
2023-03-17T23:11:44.597Z,18.25
2023-03-17T23:16:48.851Z,16.00
2023-03-17T23:21:51.689Z,20.50
2023-03-17T23:26:54.456Z,17.00
2023-03-17T23:31:58.785Z,18.50
2023-03-17T23:37:01.597Z,19.75
2023-03-17T23:42:04.771Z,17.00
2023-03-17T23:47:10.651Z,19.75
2023-03-17T23:52:13.858Z,16.00
2023-03-17T23:57:17.137Z,17.50
